BGSF

Kangerlussuaq Airport

Kangerlussuaq, Greenland
METAR BGSF 201050Z AUTO VRB06G16KT 9999NDV BKN210/// 09/M06 Q0993
Observed Flight Rules
Nov-20 @ 10:50 UTC (an hour ago)
Wind Clouds
Variable at 6 knots
 Gusting to 16 knots
  • Broken at 21,000' AGL
Temperatures Readings
Current 9°C / 48°F
Dewpoint -6°C / 21°F
Humidity 34%
Altimeter 29.32" Hg
Pressure 993 hPa
Elevation 53
METAR BGSF 201050Z AUTO VRB06G16KT 9999NDV BKN210/// 09/M06 Q0993
Observed Flight Rules
Nov-20 @ 10:50 UTC
(an hour ago)
Wind
Variable at 6 knots
 Gusting to 16 knots
Clouds
  • Broken at 21,000' AGL
Temperature Dewpoint
9°C / 48°F -6°C / 21°F
Humidity Altimeter Pressure
34% 29.32" Hg 993 hPa